createdAt,value
2019-06-20T00:00:54.239Z,90.27
2019-06-20T00:03:24.962Z,90.20
2019-06-20T00:05:55.913Z,90.20
2019-06-20T00:08:26.971Z,90.36
2019-06-20T00:10:57.682Z,90.14
2019-06-20T00:13:28.384Z,90.26
2019-06-20T00:15:59.996Z,90.09
2019-06-20T00:18:31.947Z,90.21
2019-06-20T00:21:02.777Z,90.31
2019-06-20T00:23:33.495Z,90.29
2019-06-20T00:26:06.490Z,90.23
2019-06-20T00:28:37.601Z,90.42
2019-06-20T00:31:08.537Z,90.41
2019-06-20T00:33:39.691Z,90.30
2019-06-20T00:36:11.135Z,90.29
2019-06-20T00:38:42.149Z,90.33
2019-06-20T00:41:14.183Z,90.31
2019-06-20T00:43:45.321Z,90.49
2019-06-20T00:46:16.413Z,90.62
2019-06-20T00:48:47.512Z,90.42
2019-06-20T00:51:19.472Z,90.39
2019-06-20T00:53:50.552Z,90.49
2019-06-20T00:56:22.586Z,90.43
2019-06-20T00:58:55.437Z,90.62
2019-06-20T01:01:26.292Z,90.78
2019-06-20T01:03:57.090Z,90.56
2019-06-20T01:06:28.295Z,90.62
2019-06-20T01:09:01.806Z,90.42
2019-06-20T01:11:35.199Z,90.41
2019-06-20T01:14:07.402Z,90.45
2019-06-20T01:16:39.500Z,90.61
2019-06-20T01:19:10.830Z,90.52
2019-06-20T01:21:42.045Z,90.57
2019-06-20T01:24:13.316Z,90.60
2019-06-20T01:26:44.046Z,90.65
2019-06-20T01:29:15.404Z,90.68
2019-06-20T01:31:46.300Z,90.81
2019-06-20T01:34:19.003Z,90.78
2019-06-20T01:36:52.390Z,90.84
2019-06-20T01:39:26.061Z,90.94
2019-06-20T01:41:56.718Z,91.07
2019-06-20T01:44:27.583Z,90.97
2019-06-20T01:46:59.273Z,90.95
2019-06-20T01:49:30.361Z,91.04
2019-06-20T01:52:01.543Z,90.96
2019-06-20T01:54:32.597Z,90.82
2019-06-20T01:57:03.517Z,90.80
2019-06-20T01:59:34.397Z,90.71
2019-06-20T02:02:08.493Z,90.76
2019-06-20T02:04:39.641Z,90.71
2019-06-20T02:07:10.530Z,90.63
2019-06-20T02:09:41.967Z,90.62
2019-06-20T02:12:13.279Z,90.57
2019-06-20T02:14:44.262Z,90.65
2019-06-20T02:17:15.422Z,90.82
2019-06-20T02:19:45.934Z,90.65
2019-06-20T02:22:16.767Z,90.62
2019-06-20T02:24:47.513Z,90.61
2019-06-20T02:27:21.081Z,90.61
2019-06-20T02:29:53.109Z,90.68
2019-06-20T02:32:23.942Z,90.57
2019-06-20T02:34:54.677Z,90.50
2019-06-20T02:37:27.321Z,90.33
2019-06-20T02:40:00.004Z,90.17
2019-06-20T02:42:30.780Z,90.23
2019-06-20T02:45:06.372Z,90.08
2019-06-20T02:47:38.002Z,90.12
2019-06-20T02:50:10.113Z,89.95
2019-06-20T02:52:42.753Z,89.89
2019-06-20T02:55:14.901Z,89.89
2019-06-20T02:57:45.666Z,89.84
2019-06-20T03:00:18.063Z,89.86
2019-06-20T03:02:49.638Z,89.76
2019-06-20T03:05:21.324Z,89.69
2019-06-20T03:07:52.420Z,89.75
2019-06-20T03:10:23.460Z,89.80
2019-06-20T03:12:54.415Z,89.89
2019-06-20T03:15:25.631Z,89.95
2019-06-20T03:17:56.674Z,89.96
2019-06-20T03:20:27.593Z,89.94
2019-06-20T03:22:58.439Z,90.00
2019-06-20T03:25:31.111Z,90.05
2019-06-20T03:28:03.959Z,90.03
2019-06-20T03:30:37.502Z,90.02
2019-06-20T03:33:08.400Z,90.03
2019-06-20T03:35:39.264Z,90.12
2019-06-20T03:38:10.105Z,90.14
2019-06-20T03:40:43.592Z,90.03
2019-06-20T03:43:14.941Z,89.97
2019-06-20T03:45:46.399Z,90.02
2019-06-20T03:48:18.107Z,89.99
2019-06-20T03:50:48.928Z,90.02
2019-06-20T03:53:22.483Z,89.94
2019-06-20T03:55:53.637Z,90.17
2019-06-20T03:58:24.459Z,90.24
2019-06-20T04:00:56.098Z,90.13
2019-06-20T04:03:29.311Z,90.41
2019-06-20T04:06:00.059Z,90.41
2019-06-20T04:08:31.160Z,90.42
2019-06-20T04:11:01.805Z,90.50
2019-06-20T04:13:33.278Z,90.52
2019-06-20T04:16:06.764Z,90.61
2019-06-20T04:18:37.607Z,90.46
2019-06-20T04:21:08.172Z,90.13
2019-06-20T04:23:39.148Z,90.10
2019-06-20T04:26:10.373Z,90.19
2019-06-20T04:28:43.128Z,89.95
2019-06-20T04:31:14.215Z,90.00
2019-06-20T04:33:45.051Z,89.78
2019-06-20T04:36:15.915Z,89.49
2019-06-20T04:38:48.566Z,89.29
2019-06-20T04:41:19.359Z,89.16
2019-06-20T04:43:50.438Z,89.01
2019-06-20T04:46:33.588Z,88.96
2019-06-20T04:49:04.424Z,88.87
2019-06-20T04:51:35.183Z,88.68
2019-06-20T04:54:07.700Z,88.51
2019-06-20T04:56:38.855Z,88.19
2019-06-20T04:59:10.732Z,88.01
2019-06-20T05:01:41.702Z,87.93
2019-06-20T05:04:12.871Z,87.78
2019-06-20T05:06:49.524Z,87.87
2019-06-20T05:09:21.009Z,87.81
2019-06-20T05:11:52.442Z,87.64
2019-06-20T05:14:23.805Z,87.66
2019-06-20T05:16:55.861Z,87.67
2019-06-20T05:19:28.288Z,87.65
2019-06-20T05:21:59.335Z,87.50
2019-06-20T05:24:31.496Z,87.34
2019-06-20T05:27:02.378Z,87.17
2019-06-20T05:29:34.098Z,86.77
2019-06-20T05:32:06.132Z,85.46
2019-06-20T05:34:38.513Z,82.98
2019-06-20T05:37:10.780Z,79.23
2019-06-20T05:39:44.606Z,77.69
2019-06-20T05:42:17.404Z,74.35
2019-06-20T05:44:49.763Z,72.17
2019-06-20T05:47:21.175Z,68.16
2019-06-20T05:49:52.948Z,68.31
2019-06-20T05:52:25.309Z,66.31
2019-06-20T05:54:56.784Z,64.36
2019-06-20T05:57:29.394Z,63.99
2019-06-20T06:00:00.952Z,61.73
2019-06-20T06:02:33.444Z,60.33
2019-06-20T06:05:07.061Z,59.00
2019-06-20T06:07:39.187Z,58.15
2019-06-20T06:10:10.740Z,58.21
2019-06-20T06:12:42.362Z,59.63
2019-06-20T06:15:13.457Z,58.59
2019-06-20T06:17:45.052Z,57.95
2019-06-20T06:20:16.427Z,56.67
2019-06-20T06:22:47.989Z,55.63
2019-06-20T06:25:19.307Z,54.93
2019-06-20T06:27:50.857Z,54.30
2019-06-20T06:30:23.462Z,53.84
2019-06-20T06:32:54.693Z,53.34
2019-06-20T06:35:26.162Z,53.44
2019-06-20T06:37:57.224Z,53.04
2019-06-20T06:40:28.764Z,53.41
2019-06-20T06:42:59.634Z,52.25
2019-06-20T06:45:31.204Z,50.86
2019-06-20T06:48:03.012Z,51.09
2019-06-20T06:50:34.322Z,49.49
2019-06-20T06:53:07.795Z,50.58
2019-06-20T06:55:39.206Z,50.52
2019-06-20T06:58:12.233Z,50.48
2019-06-20T07:00:43.732Z,50.00
2019-06-20T07:03:14.378Z,49.82
2019-06-20T07:05:45.243Z,48.88
2019-06-20T07:08:17.344Z,49.47
2019-06-20T07:10:48.713Z,49.38
2019-06-20T07:13:20.067Z,49.12
2019-06-20T07:15:55.971Z,48.77
2019-06-20T07:18:27.104Z,49.28
2019-06-20T07:20:58.255Z,48.68
2019-06-20T07:23:29.150Z,49.48
2019-06-20T07:26:00.118Z,49.65
2019-06-20T07:28:31.864Z,50.31
2019-06-20T07:31:02.595Z,48.49
2019-06-20T07:33:33.227Z,48.64
2019-06-20T07:36:03.869Z,48.46
2019-06-20T07:38:36.435Z,47.99
2019-06-20T07:41:07.364Z,47.67
2019-06-20T07:43:38.145Z,47.10
2019-06-20T07:46:08.722Z,47.63
2019-06-20T07:48:43.470Z,47.76
2019-06-20T07:51:13.507Z,46.98
2019-06-20T07:53:45.127Z,46.56
2019-06-20T07:56:17.929Z,46.22
2019-06-20T07:58:48.983Z,45.31
2019-06-20T08:01:19.908Z,45.02
2019-06-20T08:03:52.026Z,45.76
2019-06-20T08:06:22.998Z,46.19
2019-06-20T08:08:53.983Z,45.61
2019-06-20T08:11:24.875Z,44.78
2019-06-20T08:13:55.694Z,44.25
2019-06-20T08:16:26.497Z,44.18
2019-06-20T08:18:57.486Z,44.42
2019-06-20T08:21:28.333Z,43.55
2019-06-20T08:23:59.464Z,43.24
2019-06-20T08:26:30.507Z,43.39
2019-06-20T08:29:16.644Z,43.27
2019-06-20T08:31:34.665Z,43.45
2019-06-20T08:34:06.595Z,44.10
2019-06-20T08:36:37.671Z,45.03
2019-06-20T08:39:10.666Z,45.33
2019-06-20T08:41:41.231Z,44.82
2019-06-20T08:44:12.290Z,44.25
2019-06-20T08:46:43.028Z,43.61
2019-06-20T08:49:13.861Z,43.74
2019-06-20T08:51:44.639Z,43.85
2019-06-20T08:54:15.356Z,44.25
2019-06-20T08:56:46.578Z,46.01
2019-06-20T08:59:24.441Z,46.52
2019-06-20T09:01:56.501Z,46.46
2019-06-20T09:04:26.512Z,43.81
2019-06-20T09:06:58.800Z,44.36
2019-06-20T09:09:30.435Z,45.45
2019-06-20T09:12:02.434Z,46.17
2019-06-20T09:14:33.661Z,45.99
2019-06-20T09:17:04.786Z,46.00
2019-06-20T09:19:36.075Z,45.38
2019-06-20T09:22:07.177Z,45.31
2019-06-20T09:24:38.014Z,45.59
2019-06-20T09:27:08.925Z,46.05
2019-06-20T09:29:41.961Z,45.97
2019-06-20T09:32:12.531Z,45.32
2019-06-20T09:34:43.548Z,44.86
2019-06-20T09:37:16.208Z,45.19
2019-06-20T09:39:47.172Z,44.97
2019-06-20T09:42:18.492Z,44.00
2019-06-20T09:44:49.897Z,43.61
2019-06-20T09:47:24.810Z,42.78
2019-06-20T09:49:57.693Z,43.77
2019-06-20T09:52:35.008Z,44.69
2019-06-20T09:55:07.540Z,45.43
2019-06-20T09:57:38.011Z,46.16
2019-06-20T10:00:12.300Z,46.25
2019-06-20T10:02:43.365Z,46.88
2019-06-20T10:05:14.217Z,48.38
2019-06-20T10:07:45.526Z,49.52
2019-06-20T10:10:18.022Z,47.62
2019-06-20T10:12:49.643Z,46.76
2019-06-20T10:15:53.532Z,47.11
2019-06-20T10:18:24.274Z,46.96
2019-06-20T10:20:57.710Z,47.48
2019-06-20T10:23:29.409Z,47.63
2019-06-20T10:26:00.047Z,47.89
2019-06-20T10:28:30.901Z,48.26
2019-06-20T10:31:03.102Z,48.58
2019-06-20T10:33:33.663Z,48.52
2019-06-20T10:36:04.527Z,49.07
2019-06-20T10:38:35.771Z,48.97
2019-06-20T10:41:07.160Z,48.75
2019-06-20T10:43:38.703Z,48.53
2019-06-20T10:46:09.977Z,49.68
2019-06-20T10:48:42.513Z,49.52
2019-06-20T10:51:30.393Z,49.70
2019-06-20T10:54:01.045Z,49.75
2019-06-20T10:56:32.055Z,50.24
2019-06-20T10:59:02.678Z,49.92
2019-06-20T11:01:33.431Z,49.95
2019-06-20T11:04:04.497Z,49.83
2019-06-20T11:06:35.365Z,48.72
2019-06-20T11:09:09.825Z,49.29
2019-06-20T11:11:41.795Z,49.91
2019-06-20T11:14:13.675Z,50.42
2019-06-20T11:16:47.152Z,50.32
2019-06-20T11:19:18.052Z,50.74
2019-06-20T11:21:49.003Z,50.86
2019-06-20T11:24:20.045Z,51.40
2019-06-20T11:26:54.035Z,51.37
2019-06-20T11:29:24.953Z,52.37
2019-06-20T11:31:56.924Z,52.79
2019-06-20T11:34:30.652Z,53.18
2019-06-20T11:37:06.150Z,54.13
2019-06-20T11:39:41.140Z,54.70
2019-06-20T11:42:29.059Z,54.10
2019-06-20T11:45:10.179Z,53.45
2019-06-20T11:47:51.405Z,53.98
2019-06-20T11:50:25.743Z,53.49
2019-06-20T11:53:03.668Z,53.18
2019-06-20T11:55:38.181Z,53.27
2019-06-20T11:58:12.906Z,52.21
2019-06-20T12:01:02.504Z,51.65
2019-06-20T12:03:22.078Z,50.41
2019-06-20T12:05:56.293Z,47.93
2019-06-20T12:08:29.786Z,47.87
2019-06-20T12:11:00.336Z,48.02
2019-06-20T12:13:31.306Z,46.65
2019-06-20T12:16:02.302Z,45.85
2019-06-20T12:18:33.241Z,44.80
2019-06-20T12:21:04.194Z,43.97
2019-06-20T12:23:39.529Z,43.24
2019-06-20T12:26:15.705Z,43.77
2019-06-20T12:28:58.391Z,44.54
2019-06-20T12:31:41.127Z,44.44
2019-06-20T12:34:14.009Z,44.43
2019-06-20T12:36:48.539Z,44.46
2019-06-20T12:39:55.575Z,44.14
2019-06-20T12:42:26.202Z,43.72
2019-06-20T12:44:56.704Z,44.06
2019-06-20T12:47:27.170Z,44.65
2019-06-20T12:49:57.935Z,44.64
2019-06-20T12:52:32.740Z,44.45
2019-06-20T12:55:03.772Z,44.13
2019-06-20T12:57:35.440Z,44.33
2019-06-20T13:00:07.135Z,44.37
2019-06-20T13:02:47.429Z,45.24
2019-06-20T13:05:19.704Z,45.53
2019-06-20T13:07:50.538Z,45.62
2019-06-20T13:10:22.615Z,45.87
2019-06-20T13:12:53.139Z,45.92
2019-06-20T13:15:23.677Z,45.85
2019-06-20T13:17:54.375Z,46.13
2019-06-20T13:20:28.776Z,46.56
2019-06-20T13:23:01.038Z,46.34
2019-06-20T13:25:33.870Z,46.97
2019-06-20T13:28:04.358Z,47.47
2019-06-20T13:30:38.536Z,47.99
2019-06-20T13:33:11.351Z,48.13
2019-06-20T13:35:43.693Z,48.49
2019-06-20T13:38:14.285Z,48.61
2019-06-20T13:40:47.232Z,49.40
2019-06-20T13:43:18.004Z,49.89
2019-06-20T13:45:49.889Z,50.54
2019-06-20T13:48:20.707Z,51.13
2019-06-20T13:50:58.890Z,51.46
2019-06-20T13:53:35.081Z,51.90
2019-06-20T13:56:09.010Z,52.42
2019-06-20T13:58:42.245Z,52.74
2019-06-20T14:01:12.716Z,52.96
2019-06-20T14:03:45.031Z,52.99
2019-06-20T14:06:15.495Z,52.95
2019-06-20T14:08:46.348Z,53.12
2019-06-20T14:11:19.161Z,52.91
2019-06-20T14:13:52.993Z,51.51
2019-06-20T14:16:22.434Z,50.71
2019-06-20T14:18:52.950Z,50.42
2019-06-20T14:21:23.503Z,50.21
2019-06-20T14:23:54.284Z,50.64
2019-06-20T14:26:27.355Z,50.14
2019-06-20T14:28:58.277Z,50.43
2019-06-20T14:31:28.774Z,50.89
2019-06-20T14:34:00.372Z,50.52
2019-06-20T14:36:33.012Z,50.35
2019-06-20T14:39:04.620Z,50.49
2019-06-20T14:41:36.695Z,50.27
2019-06-20T14:44:07.430Z,49.85
2019-06-20T14:46:38.039Z,50.30
2019-06-20T14:49:08.489Z,50.16
2019-06-20T14:51:39.163Z,49.87
2019-06-20T14:54:09.822Z,50.65
2019-06-20T14:56:40.510Z,49.96
2019-06-20T14:59:12.080Z,49.83
2019-06-20T15:01:45.116Z,49.91
2019-06-20T15:04:16.722Z,49.99
2019-06-20T15:06:48.484Z,50.52
2019-06-20T15:09:19.097Z,51.43
2019-06-20T15:11:51.257Z,51.17
2019-06-20T15:14:22.273Z,51.25
2019-06-20T15:16:53.700Z,51.54
2019-06-20T15:19:24.241Z,51.44
2019-06-20T15:21:56.677Z,51.03
2019-06-20T15:24:28.379Z,51.17
2019-06-20T15:27:02.063Z,50.69
2019-06-20T15:29:33.673Z,49.74
2019-06-20T15:32:05.765Z,49.89
2019-06-20T15:34:36.871Z,49.86
2019-06-20T15:37:09.219Z,50.61
2019-06-20T15:39:40.025Z,50.31
2019-06-20T15:42:11.085Z,50.14
2019-06-20T15:44:41.867Z,49.64
2019-06-20T15:47:12.658Z,49.81
2019-06-20T15:49:43.398Z,49.40
2019-06-20T15:52:13.941Z,49.55
2019-06-20T15:54:44.435Z,49.74
2019-06-20T15:57:15.046Z,50.10
2019-06-20T15:59:45.582Z,50.41
2019-06-20T16:02:17.653Z,50.22
2019-06-20T16:04:48.129Z,50.21
2019-06-20T16:07:18.778Z,50.06
2019-06-20T16:09:51.832Z,49.77
2019-06-20T16:12:22.447Z,48.87
2019-06-20T16:14:55.291Z,48.35
2019-06-20T16:17:26.212Z,48.44
2019-06-20T16:19:56.977Z,48.89
2019-06-20T16:22:27.578Z,48.44
2019-06-20T16:24:58.429Z,48.52
2019-06-20T16:27:33.764Z,49.11
2019-06-20T16:30:01.639Z,49.75
2019-06-20T16:32:34.278Z,50.32
2019-06-20T16:35:04.915Z,50.84
2019-06-20T16:37:36.737Z,51.28
2019-06-20T16:40:08.117Z,51.70
2019-06-20T16:42:38.658Z,51.83
2019-06-20T16:45:10.092Z,51.90
2019-06-20T16:47:41.053Z,51.80
2019-06-20T16:50:12.069Z,51.96
2019-06-20T16:52:43.653Z,52.39
2019-06-20T16:55:14.235Z,52.46
2019-06-20T16:57:45.025Z,52.13
2019-06-20T17:00:15.837Z,51.42
2019-06-20T17:02:46.508Z,51.54
2019-06-20T17:05:19.947Z,51.81
2019-06-20T17:07:50.933Z,51.61
2019-06-20T17:10:24.004Z,51.62
2019-06-20T17:12:57.372Z,51.63
2019-06-20T17:15:28.615Z,51.11
2019-06-20T17:17:59.199Z,50.45
2019-06-20T17:20:30.575Z,50.27
2019-06-20T17:23:01.459Z,50.76
2019-06-20T17:25:32.315Z,51.25
2019-06-20T17:28:03.549Z,51.25
2019-06-20T17:30:35.038Z,51.41
2019-06-20T17:33:06.840Z,51.59
2019-06-20T17:35:37.873Z,52.06
2019-06-20T17:38:08.557Z,51.99
2019-06-20T17:40:39.634Z,52.40
2019-06-20T17:43:10.121Z,52.92
2019-06-20T17:45:41.833Z,52.95
2019-06-20T17:48:13.732Z,53.08
2019-06-20T17:50:44.405Z,53.10
2019-06-20T17:53:15.289Z,52.74
2019-06-20T17:55:46.076Z,53.07
2019-06-20T17:58:16.568Z,53.47
2019-06-20T18:00:47.008Z,53.99
2019-06-20T18:03:18.733Z,54.79
2019-06-20T18:05:49.519Z,55.14
2019-06-20T18:08:20.516Z,55.01
2019-06-20T18:10:51.313Z,54.91
2019-06-20T18:13:23.386Z,54.96
2019-06-20T18:15:53.869Z,55.35
2019-06-20T18:18:24.504Z,55.45
2019-06-20T18:20:55.479Z,55.62
2019-06-20T18:23:26.128Z,56.10
2019-06-20T18:25:56.859Z,56.39
2019-06-20T18:28:27.460Z,56.98
2019-06-20T18:30:58.127Z,57.23
2019-06-20T18:33:28.664Z,57.02
2019-06-20T18:35:59.177Z,57.00
2019-06-20T18:38:30.772Z,57.25
2019-06-20T18:41:01.237Z,57.56
2019-06-20T18:43:34.104Z,57.91
2019-06-20T18:46:04.348Z,58.45
2019-06-20T18:48:35.151Z,58.89
2019-06-20T18:51:05.836Z,59.07
2019-06-20T18:53:36.829Z,59.57
2019-06-20T18:56:09.600Z,59.96
2019-06-20T18:58:40.709Z,60.05
2019-06-20T19:01:11.843Z,60.32
2019-06-20T19:03:42.472Z,60.71
2019-06-20T19:06:13.248Z,60.63
2019-06-20T19:08:43.927Z,61.05
2019-06-20T19:11:16.368Z,61.15
2019-06-20T19:13:50.039Z,61.37
2019-06-20T19:16:22.881Z,61.49
2019-06-20T19:18:56.882Z,61.89
2019-06-20T19:21:31.716Z,62.45
2019-06-20T19:24:02.255Z,62.74
2019-06-20T19:26:33.060Z,63.05
2019-06-20T19:29:03.638Z,63.24
2019-06-20T19:31:34.191Z,63.51
2019-06-20T19:34:04.756Z,64.14
2019-06-20T19:36:36.168Z,64.23
2019-06-20T19:39:07.922Z,64.40
2019-06-20T19:41:38.832Z,64.68
2019-06-20T19:44:09.639Z,64.85
2019-06-20T19:46:40.961Z,65.08
2019-06-20T19:49:11.522Z,65.27
2019-06-20T19:51:46.333Z,65.21
2019-06-20T19:54:18.105Z,65.49
2019-06-20T19:56:50.211Z,65.83
2019-06-20T19:59:23.595Z,65.94
2019-06-20T20:01:55.530Z,66.03
2019-06-20T20:04:28.441Z,66.30
2019-06-20T20:06:59.047Z,66.45
2019-06-20T20:09:31.010Z,66.54
2019-06-20T20:12:02.033Z,66.58
2019-06-20T20:14:33.787Z,67.10
2019-06-20T20:17:05.713Z,67.46
2019-06-20T20:19:39.863Z,67.83
2019-06-20T20:22:12.166Z,68.51
2019-06-20T20:24:44.145Z,69.36
2019-06-20T20:27:14.903Z,69.68
2019-06-20T20:29:46.054Z,69.45
2019-06-20T20:32:17.466Z,69.42
2019-06-20T20:34:53.007Z,69.42
2019-06-20T20:37:27.683Z,69.59
2019-06-20T20:39:58.316Z,69.76
2019-06-20T20:42:31.120Z,69.88
2019-06-20T20:45:01.731Z,70.36
2019-06-20T20:47:32.323Z,70.31
2019-06-20T20:50:02.806Z,70.64
2019-06-20T20:52:34.818Z,71.02
2019-06-20T20:55:06.208Z,71.18
2019-06-20T20:57:36.972Z,71.55
2019-06-20T21:00:12.776Z,71.53
2019-06-20T21:02:45.793Z,71.76
2019-06-20T21:05:16.286Z,72.05
2019-06-20T21:07:47.156Z,72.01
2019-06-20T21:10:18.175Z,72.06
2019-06-20T21:12:48.648Z,72.07
2019-06-20T21:15:21.814Z,72.21
2019-06-20T21:17:55.630Z,72.34
2019-06-20T21:20:24.760Z,72.38
2019-06-20T21:22:56.856Z,72.45
2019-06-20T21:25:32.153Z,72.64
2019-06-20T21:28:01.299Z,72.81
2019-06-20T21:30:31.806Z,72.59
2019-06-20T21:33:04.306Z,72.53
2019-06-20T21:35:34.905Z,72.61
2019-06-20T21:38:07.981Z,72.65
2019-06-20T21:40:38.479Z,72.75
2019-06-20T21:43:09.616Z,72.90
2019-06-20T21:45:40.222Z,72.89
2019-06-20T21:48:10.759Z,73.12
2019-06-20T21:50:41.705Z,72.96
2019-06-20T21:53:12.132Z,73.10
2019-06-20T21:55:43.700Z,73.06
2019-06-20T21:58:15.262Z,72.77
2019-06-20T22:00:48.685Z,72.72
2019-06-20T22:03:22.377Z,72.65
2019-06-20T22:05:53.084Z,72.48
2019-06-20T22:08:27.347Z,72.36
2019-06-20T22:10:58.017Z,72.01
2019-06-20T22:13:28.662Z,71.97
2019-06-20T22:15:59.194Z,71.90
2019-06-20T22:18:30.163Z,71.95
2019-06-20T22:21:01.012Z,71.99
2019-06-20T22:23:31.877Z,72.01
2019-06-20T22:26:02.531Z,72.26
2019-06-20T22:28:33.418Z,72.53
2019-06-20T22:31:04.072Z,72.70
2019-06-20T22:33:37.183Z,72.89
2019-06-20T22:36:08.128Z,72.92
2019-06-20T22:38:39.804Z,73.18
2019-06-20T22:41:10.574Z,73.11
2019-06-20T22:43:44.730Z,73.09
2019-06-20T22:46:15.514Z,73.30
2019-06-20T22:48:45.927Z,73.46
2019-06-20T22:51:19.428Z,73.50
2019-06-20T22:53:50.034Z,73.65
2019-06-20T22:56:23.540Z,73.84
2019-06-20T22:58:54.554Z,74.33
2019-06-20T23:01:26.208Z,74.53
2019-06-20T23:03:58.306Z,74.68
2019-06-20T23:06:29.108Z,74.87
2019-06-20T23:08:59.483Z,74.94
2019-06-20T23:11:30.032Z,74.83
2019-06-20T23:14:00.596Z,74.94
2019-06-20T23:16:31.135Z,74.94
2019-06-20T23:19:01.636Z,75.12
2019-06-20T23:21:33.233Z,75.07
2019-06-20T23:24:03.843Z,75.14
2019-06-20T23:26:34.551Z,75.23
2019-06-20T23:29:23.214Z,75.17
2019-06-20T23:31:54.990Z,74.95
2019-06-20T23:34:25.404Z,74.91
2019-06-20T23:37:11.610Z,74.92
2019-06-20T23:39:29.202Z,74.96
2019-06-20T23:42:00.740Z,75.14
2019-06-20T23:44:31.346Z,75.36
2019-06-20T23:47:02.055Z,75.59
2019-06-20T23:49:32.682Z,75.77
2019-06-20T23:52:08.568Z,75.92
2019-06-20T23:54:39.294Z,76.07
2019-06-20T23:57:09.911Z,76.00
2019-06-20T23:59:41.605Z,75.93
